»·PEaware :: ACA552 CYVR-KLAX

ACA552 :: CYVR-KLAX

FLIGHT INFORMATION

Flight Status: Arrived
Operator:
Air Canada
More flights by this operator :: More flights under this callsign
Pilot: Bob S. (40)
Aircraft: EMBRAER EMB-190/195
(E190)
More flights by this aircraft type
Origin: CYVR Vancouver Intl
Canada
Destination: KLAX Los Angeles Intl
United States
More flights between these airports :: More routes between these airports
Route: YVR SEA SUMMA Q9 SMIGE Q9 SUNBE FRA REBRG DERBB SADDE6
File this flight plan on PilotEdge
Remarks: expecting 24L
Altitude:
(Current/Filed)
35,000ft
Speed:
(Current/Filed)
445kts
Departed: 15-Feb-11 12:03 PM
Arrived: 15-Feb-11 02:34 PM
Distance/Time
Traveled:
939nm/2:31
Distance/Time
To Go:
Arrived

Flight Plot

Page will automatically refresh every two minutes.


Map Options




Map Legend


Flown Route
Filed Route
Departure Airport
Arrival Airport
Navaid (VOR, NDB)
Fix

Horizontal Profiles

Position Reports

Time Latitude Longitude Heading Altitude Ground
Speed
15-Feb-11 11:56 49.194954 -123.185116 96 22ft 0kts
15-Feb-11 11:57 49.194954 -123.185116 96 22ft 0kts
15-Feb-11 11:58 49.195559 -123.185130 8 22ft 14kts
15-Feb-11 11:59 49.201571 -123.188352 283 22ft 20kts
15-Feb-11 12:00 49.201593 -123.198917 140 22ft 35kts
15-Feb-11 12:01 49.199675 -123.200572 156 22ft 9kts
15-Feb-11 12:02 49.197984 -123.198673 141 22ft 73kts
15-Feb-11 12:03 49.178612 -123.175208 143 593ft 229kts
15-Feb-11 12:04 49.127079 -123.129096 161 3453ft 257kts
15-Feb-11 12:05 49.059992 -123.096553 163 7038ft 273kts
15-Feb-11 12:06 48.987713 -123.062317 166 10691ft 285kts
15-Feb-11 12:07 48.903474 -123.022758 168 14440ft 337kts
15-Feb-11 12:08 48.815442 -122.981600 170 18030ft 355kts
15-Feb-11 12:09 48.719587 -122.936894 171 21751ft 372kts
15-Feb-11 12:10 48.620924 -122.891071 172 25423ft 389kts
15-Feb-11 12:11 48.515644 -122.842419 172 29172ft 409kts
15-Feb-11 12:12 48.403752 -122.790902 172 32914ft 436kts
15-Feb-11 12:13 48.283736 -122.735860 171 35022ft 474kts
15-Feb-11 12:14 48.158436 -122.678686 171 35031ft 472kts
15-Feb-11 12:15 48.033387 -122.621947 171 35031ft 472kts
15-Feb-11 12:16 47.907957 -122.565329 171 35030ft 473kts
15-Feb-11 12:17 47.785778 -122.510938 172 35017ft 472kts
15-Feb-11 12:18 47.661791 -122.455502 172 35017ft 469kts
15-Feb-11 12:19 47.536742 -122.399882 172 35016ft 469kts
15-Feb-11 12:20 47.414496 -122.345779 172 35015ft 469kts
15-Feb-11 12:21 47.314804 -122.301723 171 35024ft 472kts
15-Feb-11 12:22 47.190329 -122.244969 171 35024ft 470kts
15-Feb-11 12:23 47.070954 -122.190928 171 35024ft 471kts
15-Feb-11 12:24 46.947930 -122.135497 171 35024ft 469kts
15-Feb-11 12:25 46.824131 -122.079988 171 35023ft 469kts
15-Feb-11 12:26 46.700138 -122.024656 171 35022ft 471kts
15-Feb-11 12:27 46.575072 -121.971370 173 35022ft 466kts
15-Feb-11 12:28 46.428730 -121.915181 173 35021ft 467kts
15-Feb-11 12:29 46.326611 -121.876035 173 35029ft 469kts
15-Feb-11 12:30 46.201128 -121.828140 173 35030ft 468kts
15-Feb-11 12:31 46.075420 -121.780374 173 35029ft 468kts
15-Feb-11 12:32 45.949676 -121.732824 173 35028ft 467kts
15-Feb-11 12:33 45.824102 -121.685557 173 35028ft 468kts
15-Feb-11 12:34 45.699053 -121.638709 173 35027ft 467kts
15-Feb-11 12:35 45.573455 -121.591882 173 35027ft 469kts
15-Feb-11 12:36 45.447692 -121.545192 173 35025ft 468kts
15-Feb-11 12:37 45.328740 -121.501599 174 35022ft 466kts
15-Feb-11 12:38 45.203516 -121.455623 174 35023ft 466kts
15-Feb-11 12:39 45.078053 -121.409668 174 35021ft 464kts
15-Feb-11 12:40 44.952513 -121.363904 174 35020ft 465kts
15-Feb-11 12:41 44.827395 -121.318498 174 35020ft 465kts
15-Feb-11 12:42 44.701874 -121.273160 174 35020ft 467kts
15-Feb-11 12:43 44.576505 -121.228065 174 35019ft 465kts
15-Feb-11 12:44 44.451285 -121.183230 174 35018ft 468kts
15-Feb-11 12:45 44.327971 -121.139270 174 35027ft 466kts
15-Feb-11 12:46 44.202195 -121.094628 174 35027ft 465kts
15-Feb-11 12:47 44.077103 -121.050424 174 35026ft 463kts
15-Feb-11 12:48 43.951608 -121.006277 174 35025ft 467kts
15-Feb-11 12:49 43.826187 -120.962336 174 35025ft 465kts
15-Feb-11 12:50 43.700616 -120.918540 174 35024ft 466kts
15-Feb-11 12:51 43.575337 -120.875034 174 35023ft 465kts
15-Feb-11 12:52 43.449778 -120.831618 174 35023ft 467kts
15-Feb-11 12:53 43.325970 -120.788988 174 35031ft 467kts
15-Feb-11 12:54 43.200308 -120.745895 174 35031ft 465kts
15-Feb-11 12:55 43.074835 -120.703058 174 35030ft 464kts
15-Feb-11 12:56 42.949625 -120.660493 174 35030ft 466kts
15-Feb-11 12:57 42.824455 -120.618112 174 35029ft 465kts
15-Feb-11 12:58 42.699005 -120.575828 174 35029ft 465kts
15-Feb-11 12:59 42.573398 -120.533652 174 35027ft 464kts
15-Feb-11 13:01 42.329160 -120.431104 169 35023ft 471kts
15-Feb-11 13:02 42.205362 -120.373893 169 35023ft 468kts
15-Feb-11 13:03 42.081767 -120.317015 169 35023ft 471kts
15-Feb-11 13:04 41.958030 -120.260304 169 35022ft 469kts
15-Feb-11 13:05 41.834365 -120.203855 169 35021ft 469kts
15-Feb-11 13:06 41.710840 -120.147710 169 35021ft 471kts
15-Feb-11 13:07 41.587152 -120.091715 169 35021ft 470kts
15-Feb-11 13:08 41.464300 -120.036318 169 35020ft 471kts
15-Feb-11 13:09 41.342207 -119.981488 169 35027ft 469kts
15-Feb-11 13:10 41.218431 -119.926129 169 35030ft 472kts
15-Feb-11 13:11 41.094982 -119.871123 169 35029ft 471kts
15-Feb-11 13:12 40.970992 -119.816102 169 35028ft 469kts
15-Feb-11 13:13 40.847271 -119.761418 169 35028ft 468kts
15-Feb-11 13:14 40.723711 -119.707013 169 35027ft 470kts
15-Feb-11 13:15 40.599573 -119.652579 169 35027ft 470kts
15-Feb-11 13:16 40.476061 -119.598627 169 35026ft 470kts
15-Feb-11 13:19 40.131386 -119.449537 170 35022ft 470kts
15-Feb-11 13:20 40.007993 -119.396420 170 35021ft 470kts
15-Feb-11 13:21 39.884261 -119.343355 170 35020ft 469kts
15-Feb-11 13:22 39.760450 -119.290460 170 35020ft 469kts
15-Feb-11 13:23 39.636576 -119.237745 170 35020ft 469kts
15-Feb-11 13:24 39.513419 -119.185519 170 35018ft 468kts
15-Feb-11 13:25 39.389586 -119.133212 170 35019ft 467kts
15-Feb-11 13:26 39.268399 -119.082207 170 35028ft 468kts
15-Feb-11 13:27 39.144710 -119.030341 170 35027ft 469kts
15-Feb-11 13:28 39.021260 -118.978769 170 35027ft 467kts
15-Feb-11 13:29 38.912649 -118.878192 143 35027ft 502kts
15-Feb-11 13:30 38.811099 -118.752240 144 35028ft 502kts
15-Feb-11 13:31 38.760565 -118.714327 174 34999ft 460kts
15-Feb-11 13:32 38.705858 -118.721899 208 35004ft 426kts
15-Feb-11 13:33 38.605188 -118.790467 205 34891ft 429kts
15-Feb-11 13:34 38.491527 -118.838694 203 34822ft 430kts
15-Feb-11 13:35 38.378425 -118.885811 203 34740ft 431kts
15-Feb-11 13:36 38.267211 -118.931949 203 34707ft 431kts
15-Feb-11 13:37 38.153811 -118.978856 203 34672ft 431kts
15-Feb-11 13:38 38.039947 -119.025818 203 34625ft 431kts
15-Feb-11 13:39 37.925937 -119.072668 203 34565ft 432kts
15-Feb-11 13:40 37.812299 -119.119229 203 34493ft 432kts
15-Feb-11 13:41 37.697902 -119.165939 203 34408ft 431kts
15-Feb-11 13:42 37.584049 -119.212285 203 34310ft 431kts
15-Feb-11 13:43 37.470674 -119.258290 203 34202ft 432kts
15-Feb-11 13:44 37.358743 -119.303557 203 34084ft 432kts
15-Feb-11 13:45 37.245345 -119.349253 203 34024ft 433kts
15-Feb-11 13:46 37.130773 -119.395303 203 33949ft 432kts
15-Feb-11 13:47 37.017001 -119.440875 203 33863ft 432kts
15-Feb-11 13:48 36.902627 -119.486548 203 33765ft 432kts
15-Feb-11 13:49 36.788119 -119.532145 203 33653ft 433kts
15-Feb-11 13:50 36.673841 -119.577491 203 33299ft 433kts
15-Feb-11 13:51 36.560348 -119.622339 203 32999ft 409kts
15-Feb-11 13:52 36.455994 -119.663625 204 33009ft 396kts
15-Feb-11 13:53 36.353084 -119.704022 204 33015ft 395kts
15-Feb-11 13:54 36.248989 -119.744856 203 33019ft 394kts
15-Feb-11 13:55 36.144089 -119.785879 203 33017ft 395kts
15-Feb-11 13:56 36.039627 -119.826628 203 33018ft 394kts
15-Feb-11 13:57 35.934679 -119.867435 203 33014ft 396kts
15-Feb-11 13:58 35.829860 -119.908100 204 33009ft 396kts
15-Feb-11 13:59 35.725165 -119.948592 203 33010ft 395kts
15-Feb-11 14:01 35.512342 -119.862218 154 33006ft 455kts
15-Feb-11 14:02 35.409713 -119.773644 154 31876ft 445kts
15-Feb-11 14:03 35.311158 -119.688892 155 30361ft 435kts
15-Feb-11 14:04 35.218045 -119.608957 156 28826ft 389kts
15-Feb-11 14:05 35.132440 -119.535861 156 27314ft 371kts
15-Feb-11 14:06 35.048747 -119.464499 156 25859ft 363kts
15-Feb-11 14:07 34.967143 -119.395059 155 24381ft 357kts
15-Feb-11 14:08 34.886616 -119.326722 155 22984ft 351kts
15-Feb-11 14:09 34.807582 -119.259808 154 21691ft 345kts
15-Feb-11 14:10 34.729508 -119.193864 154 20396ft 340kts
15-Feb-11 14:11 34.653683 -119.129958 154 19119ft 333kts
15-Feb-11 14:12 34.578255 -119.066546 153 17825ft 327kts
15-Feb-11 14:13 34.504168 -119.004397 153 16532ft 322kts
15-Feb-11 14:14 34.431599 -118.943654 152 15255ft 314kts
15-Feb-11 14:15 34.362043 -118.885560 151 14084ft 307kts
15-Feb-11 14:16 34.286645 -118.855298 168 13023ft 291kts
15-Feb-11 14:17 34.209836 -118.827086 167 11966ft 287kts
15-Feb-11 14:19 34.071837 -118.776492 165 9907ft 282kts
15-Feb-11 14:20 34.033628 -118.701474 98 8499ft 277kts
15-Feb-11 14:21 34.025237 -118.614113 96 7580ft 250kts
15-Feb-11 14:22 34.019831 -118.556071 97 6914ft 234kts
15-Feb-11 14:23 34.015706 -118.512071 97 6783ft 234kts
15-Feb-11 14:24 34.011961 -118.436745 83 6411ft 237kts
15-Feb-11 14:25 34.020135 -118.359823 83 4974ft 242kts
15-Feb-11 14:26 34.027904 -118.283329 83 3576ft 244kts
15-Feb-11 14:27 34.034893 -118.213627 86 2799ft 222kts
15-Feb-11 14:28 33.991768 -118.200926 204 2793ft 212kts
15-Feb-11 14:29 33.967062 -118.259962 260 2449ft 212kts
15-Feb-11 14:30 33.959811 -118.327177 261 1364ft 173kts
15-Feb-11 14:31 33.955740 -118.366835 261 741ft 149kts
15-Feb-11 14:32 33.951321 -118.409619 260 134ft 58kts
15-Feb-11 14:33 33.949395 -118.416727 132 134ft 32kts
15-Feb-11 14:34 33.945810 -118.412830 145 134ft 0kts
15-Feb-11 14:35 33.945810 -118.412830 145 134ft 0kts
15-Feb-11 14:36 33.945810 -118.412830 145 134ft 0kts

Navigation Log

Ident Type
1. CYVR Airport
2. YVR Navaid
3. SEA Navaid
4. SUMMA Fix
5. SMIGE Fix
6. SUNBE Fix
7. FRA Navaid
8. REBRG Fix
9. DERBB Fix
10. REYES Fix
11. FIM Navaid
12. SYMON Fix
13. SADDE Fix
14. BAYST Fix
15. SMO Navaid
16. JAVSI Fix
17. KLAX Airport